Zapala, Argentina
Current Conditions -  °F | °C
As of 3:00 AM on Friday 31 Oct 2014 (Local Time) from SAZN Reporting Station
Clear Clear  
Wind Chill: 50°   Ceiling: Unl
Heat Index: 50°   Visibility: 6mi
Dew Point: 27°   Wind: 9mph
Humidity: 40%   Direction: 230°SW
Pressure: 30.03"   Gusts: NA
Location:  38.9°S, 70.07°W
Report Text: SAZN 310600Z 23008KT CAVOK 10/M03 Q1017
Loading
Personal Weather Stations






























Interactive Weather Map
Tropical Storm Tracking
New forecast layout! Learn more

10-Day Weather Forecast

Advertisements
Track Severe Weather on mobile